createdAt,value
2018-04-26T00:00:39.781Z,98405.34
2018-04-26T00:02:50.997Z,98407.53
2018-04-26T00:05:02.158Z,98402.58
2018-04-26T00:07:13.382Z,98402.96
2018-04-26T00:09:24.638Z,98407.37
2018-04-26T00:11:35.745Z,98401.39
2018-04-26T00:13:46.957Z,98397.80
2018-04-26T00:15:58.066Z,98394.59
2018-04-26T00:18:09.182Z,98405.20
2018-04-26T00:20:20.278Z,98409.66
2018-04-26T00:22:31.322Z,98409.09
2018-04-26T00:24:42.419Z,98409.09
2018-04-26T00:26:53.532Z,98409.50
2018-04-26T00:29:04.614Z,98419.09
2018-04-26T00:31:15.866Z,98419.62
2018-04-26T00:33:27.032Z,98417.16
2018-04-26T00:35:38.114Z,98415.79
2018-04-26T00:37:49.206Z,98410.66
2018-04-26T00:40:00.329Z,98412.38
2018-04-26T00:42:11.373Z,98413.45
2018-04-26T00:44:22.478Z,98405.44
2018-04-26T00:46:33.562Z,98407.69
2018-04-26T00:48:44.697Z,98398.47
2018-04-26T00:50:55.765Z,98406.20
2018-04-26T00:53:06.874Z,98406.72
2018-04-26T00:55:17.937Z,98409.02
2018-04-26T00:57:29.018Z,98406.67
2018-04-26T00:59:40.099Z,98410.06
2018-04-26T01:01:51.198Z,98410.54
2018-04-26T01:04:02.329Z,98409.66
2018-04-26T01:06:13.480Z,98414.46
2018-04-26T01:08:24.744Z,98415.59
2018-04-26T01:10:35.871Z,98418.92
2018-04-26T01:12:47.096Z,98414.63
2018-04-26T01:14:58.171Z,98428.56
2018-04-26T01:17:09.261Z,98428.17
2018-04-26T01:19:22.042Z,98425.42
2018-04-26T01:21:33.223Z,98423.84
2018-04-26T01:23:44.438Z,98419.26
2018-04-26T01:25:55.634Z,98422.85
2018-04-26T01:28:06.790Z,98421.55
2018-04-26T01:30:17.867Z,98424.88
2018-04-26T01:32:28.929Z,98428.55
2018-04-26T01:34:40.047Z,98433.80
2018-04-26T01:39:35.961Z,98444.97
2018-04-26T01:41:47.170Z,98440.72
2018-04-26T01:43:58.301Z,98441.50
2018-04-26T01:46:09.413Z,98435.75
2018-04-26T01:48:20.461Z,98437.06
2018-04-26T01:50:31.561Z,98428.57
2018-04-26T01:52:42.622Z,98437.39
2018-04-26T01:54:53.727Z,98442.08
2018-04-26T01:57:04.865Z,98448.59
2018-04-26T01:59:15.999Z,98447.48
2018-04-26T02:01:27.150Z,98451.53
2018-04-26T02:03:38.201Z,98453.09
2018-04-26T02:05:49.339Z,98451.45
2018-04-26T02:08:00.415Z,98454.73
2018-04-26T02:10:11.471Z,98455.09
2018-04-26T02:12:22.618Z,98456.78
2018-04-26T02:14:33.685Z,98464.59
2018-04-26T02:16:45.555Z,98465.29
2018-04-26T02:18:56.750Z,98466.42
2018-04-26T02:21:07.833Z,98476.58
2018-04-26T02:23:19.145Z,98473.72
2018-04-26T02:25:30.194Z,98469.75
2018-04-26T02:27:41.402Z,98468.92
2018-04-26T02:29:52.495Z,98468.75
2018-04-26T02:32:03.564Z,98459.22
2018-04-26T02:34:14.622Z,98462.73
2018-04-26T02:36:25.663Z,98453.62
2018-04-26T02:38:36.775Z,98443.19
2018-04-26T02:40:47.870Z,98446.05
2018-04-26T02:42:58.983Z,98441.84
2018-04-26T02:45:10.044Z,98449.32
2018-04-26T02:47:21.274Z,98454.12
2018-04-26T02:49:32.360Z,98463.82
2018-04-26T02:51:43.430Z,98463.41
2018-04-26T02:53:54.514Z,98465.54
2018-04-26T02:56:05.598Z,98460.86
2018-04-26T02:58:16.790Z,98462.96
2018-04-26T03:00:27.947Z,98465.79
2018-04-26T03:02:39.106Z,98470.61
2018-04-26T03:04:50.181Z,98470.25
2018-04-26T03:07:01.414Z,98453.15
2018-04-26T03:09:12.542Z,98448.48
2018-04-26T03:11:23.653Z,98452.98
2018-04-26T03:13:34.703Z,98463.42
2018-04-26T03:15:45.795Z,98471.52
2018-04-26T03:17:56.939Z,98476.51
2018-04-26T03:20:08.021Z,98472.15
2018-04-26T03:22:19.229Z,98473.20
2018-04-26T03:24:30.286Z,98482.13
2018-04-26T03:26:41.443Z,98482.84
2018-04-26T03:28:52.533Z,98481.66
2018-04-26T03:31:03.633Z,98491.50
2018-04-26T03:33:14.720Z,98500.06
2018-04-26T03:35:25.774Z,98500.84
2018-04-26T03:37:36.904Z,98502.67
2018-04-26T03:39:48.087Z,98509.77
2018-04-26T03:41:59.268Z,98507.05
2018-04-26T03:44:10.370Z,98506.66
2018-04-26T03:46:21.558Z,98504.78
2018-04-26T03:48:32.681Z,98502.05
2018-04-26T03:50:43.739Z,98506.51
2018-04-26T03:52:54.809Z,98506.09
2018-04-26T03:55:05.950Z,98526.28
2018-04-26T03:57:17.297Z,98527.34
2018-04-26T03:59:28.345Z,98528.41
2018-04-26T04:01:51.718Z,98528.88
2018-04-26T04:04:15.125Z,98520.28
2018-04-26T04:06:26.202Z,98519.45
2018-04-26T04:08:37.298Z,98529.87
2018-04-26T04:10:48.418Z,98543.03
2018-04-26T04:12:59.649Z,98539.24
2018-04-26T04:15:10.734Z,98533.73
2018-04-26T04:17:21.903Z,98529.45
2018-04-26T04:19:32.978Z,98545.87
2018-04-26T04:21:44.121Z,98546.88
2018-04-26T04:23:55.233Z,98544.16
2018-04-26T04:26:06.318Z,98547.06
2018-04-26T04:28:17.374Z,98544.70
2018-04-26T04:30:28.431Z,98542.66
2018-04-26T04:32:39.609Z,98543.88
2018-04-26T04:34:50.762Z,98544.74
2018-04-26T04:37:01.952Z,98544.28
2018-04-26T04:39:13.069Z,98554.80
2018-04-26T04:41:24.123Z,98560.31
2018-04-26T04:43:35.212Z,98557.48
2018-04-26T04:45:46.284Z,98552.69
2018-04-26T04:47:57.546Z,98554.28
2018-04-26T04:50:08.641Z,98550.14
2018-04-26T04:52:19.714Z,98559.31
2018-04-26T04:54:30.838Z,98559.78
2018-04-26T04:56:42.018Z,98561.60
2018-04-26T04:58:53.126Z,98568.97
2018-04-26T05:01:04.184Z,98567.66
2018-04-26T05:03:15.290Z,98576.70
2018-04-26T05:05:26.392Z,98578.06
2018-04-26T05:07:37.577Z,98575.64
2018-04-26T05:09:48.702Z,98580.61
2018-04-26T05:11:59.898Z,98589.91
2018-04-26T05:14:11.016Z,98588.73
2018-04-26T05:16:22.156Z,98594.94
2018-04-26T05:18:33.209Z,98595.88
2018-04-26T05:20:44.309Z,98594.57
2018-04-26T05:22:55.374Z,98592.04
2018-04-26T05:25:06.482Z,98598.84
2018-04-26T05:27:17.576Z,98592.19
2018-04-26T05:29:28.645Z,98598.17
2018-04-26T05:31:39.842Z,98600.85
2018-04-26T05:33:50.896Z,98596.58
2018-04-26T05:36:02.074Z,98607.95
2018-04-26T05:38:13.202Z,98600.19
2018-04-26T05:40:24.242Z,98601.73
2018-04-26T05:42:35.318Z,98600.06
2018-04-26T05:44:46.370Z,98591.88
2018-04-26T05:46:57.531Z,98587.47
2018-04-26T05:49:08.649Z,98588.56
2018-04-26T05:51:19.770Z,98590.45
2018-04-26T05:53:30.867Z,98584.37
2018-04-26T05:55:42.042Z,98594.17
2018-04-26T05:57:53.156Z,98598.22
2018-04-26T06:00:04.232Z,98597.89
2018-04-26T06:02:15.298Z,98597.62
2018-04-26T06:04:26.387Z,98600.38
2018-04-26T06:06:37.489Z,98609.05
2018-04-26T06:08:48.546Z,98608.65
2018-04-26T06:10:59.761Z,98607.45
2018-04-26T06:13:10.842Z,98608.70
2018-04-26T06:15:22.149Z,98612.20
2018-04-26T06:17:33.213Z,98609.84
2018-04-26T06:19:44.306Z,98611.84
2018-04-26T06:21:55.378Z,98610.67
2018-04-26T06:24:06.470Z,98615.75
2018-04-26T06:26:17.661Z,98615.05
2018-04-26T06:28:28.724Z,98617.09
2018-04-26T06:30:39.806Z,98620.13
2018-04-26T06:32:50.882Z,98615.24
2018-04-26T06:35:01.961Z,98619.27
2018-04-26T06:37:14.090Z,98615.42
2018-04-26T06:39:25.168Z,98623.09
2018-04-26T06:41:36.440Z,98624.31
2018-04-26T06:43:47.567Z,98631.88
2018-04-26T06:45:58.642Z,98640.45
2018-04-26T06:48:09.721Z,98635.87
2018-04-26T06:50:20.794Z,98642.86
2018-04-26T06:52:31.934Z,98637.78
2018-04-26T06:54:43.042Z,98647.67
2018-04-26T06:56:54.122Z,98654.05
2018-04-26T06:59:05.329Z,98653.18
2018-04-26T07:01:16.386Z,98657.69
2018-04-26T07:03:27.491Z,98663.32
2018-04-26T07:05:38.538Z,98651.94
2018-04-26T07:07:49.633Z,98650.33
2018-04-26T07:10:00.706Z,98647.97
2018-04-26T07:12:11.927Z,98657.55
2018-04-26T07:14:22.935Z,98653.78
2018-04-26T07:16:34.075Z,98661.14
2018-04-26T07:18:45.174Z,98672.20
2018-04-26T07:20:56.305Z,98664.71
2018-04-26T07:23:07.356Z,98671.24
2018-04-26T07:25:18.428Z,98656.28
2018-04-26T07:27:29.513Z,98662.30
2018-04-26T07:29:40.666Z,98668.95
2018-04-26T07:31:51.810Z,98679.11
2018-04-26T07:34:02.931Z,98682.12
2018-04-26T07:36:14.155Z,98686.64
2018-04-26T07:38:25.218Z,98689.53
2018-04-26T07:40:36.314Z,98692.52
2018-04-26T07:42:47.376Z,98702.59
2018-04-26T07:44:58.450Z,98697.62
2018-04-26T07:47:09.551Z,98696.84
2018-04-26T07:49:20.769Z,98704.34
2018-04-26T07:51:31.930Z,98705.31
2018-04-26T07:53:43.022Z,98706.13
2018-04-26T07:55:54.257Z,98706.78
2018-04-26T07:58:05.342Z,98706.55
2018-04-26T08:00:16.384Z,98712.64
2018-04-26T08:02:27.483Z,98707.74
2018-04-26T08:04:38.546Z,98715.02
2018-04-26T08:06:49.705Z,98715.56
2018-04-26T08:09:00.842Z,98719.36
2018-04-26T08:11:11.995Z,98711.99
2018-04-26T08:13:23.078Z,98724.62
2018-04-26T08:15:34.337Z,98721.92
2018-04-26T08:17:45.397Z,98725.23
2018-04-26T08:19:56.478Z,98720.56
2018-04-26T08:22:07.558Z,98732.20
2018-04-26T08:24:18.626Z,98725.08
2018-04-26T08:26:29.702Z,98725.31
2018-04-26T08:28:40.807Z,98728.80
2018-04-26T08:30:51.906Z,98729.44
2018-04-26T08:33:03.003Z,98742.54
2018-04-26T08:35:14.073Z,98741.11
2018-04-26T08:37:25.136Z,98735.24
2018-04-26T08:39:36.264Z,98745.75
2018-04-26T08:41:47.346Z,98743.53
2018-04-26T08:43:58.583Z,98750.10
2018-04-26T08:46:09.645Z,98744.24
2018-04-26T08:48:20.698Z,98747.69
2018-04-26T08:50:31.786Z,98743.22
2018-04-26T08:52:42.889Z,98754.66
2018-04-26T08:54:53.960Z,98757.00
2018-04-26T08:57:05.039Z,98755.46
2018-04-26T08:59:16.085Z,98755.47
2018-04-26T09:01:27.185Z,98760.33
2018-04-26T09:03:38.336Z,98751.09
2018-04-26T09:05:49.484Z,98751.58
2018-04-26T09:08:00.630Z,98760.48
2018-04-26T09:10:11.670Z,98753.80
2018-04-26T09:12:22.795Z,98754.58
2018-04-26T09:14:33.886Z,98752.08
2018-04-26T09:16:44.988Z,98740.77
2018-04-26T09:18:56.169Z,98738.33
2018-04-26T09:21:07.239Z,98733.24
2018-04-26T09:23:18.415Z,98740.09
2018-04-26T09:25:29.462Z,98735.61
2018-04-26T09:27:40.741Z,98733.06
2018-04-26T09:29:51.800Z,98736.36
2018-04-26T09:32:02.866Z,98735.73
2018-04-26T09:34:13.944Z,98745.72
2018-04-26T09:36:25.018Z,98737.12
2018-04-26T09:38:36.171Z,98730.52
2018-04-26T09:40:47.253Z,98730.88
2018-04-26T09:42:58.482Z,98728.99
2018-04-26T09:45:09.617Z,98732.16
2018-04-26T09:47:20.813Z,98735.04
2018-04-26T09:49:31.882Z,98737.65
2018-04-26T09:51:42.950Z,98734.91
2018-04-26T09:53:54.075Z,98727.69
2018-04-26T09:56:05.149Z,98724.53
2018-04-26T09:58:16.316Z,98728.44
2018-04-26T10:00:27.375Z,98732.33
2018-04-26T10:02:44.570Z,98716.39
2018-04-26T10:04:56.553Z,98718.63
2018-04-26T10:07:07.682Z,98705.11
2018-04-26T10:09:18.749Z,98715.44
2018-04-26T10:11:29.857Z,98709.36
2018-04-26T10:13:40.962Z,98709.09
2018-04-26T10:15:52.062Z,98701.77
2018-04-26T10:18:03.138Z,98698.88
2018-04-26T10:20:14.230Z,98702.47
2018-04-26T10:22:25.354Z,98703.75
2018-04-26T10:24:36.514Z,98695.58
2018-04-26T10:26:47.587Z,98694.48
2018-04-26T10:28:58.713Z,98692.76
2018-04-26T10:31:09.786Z,98698.19
2018-04-26T10:33:20.897Z,98697.28
2018-04-26T10:35:31.946Z,98707.68
2018-04-26T10:37:43.094Z,98704.84
2018-04-26T10:39:54.148Z,98704.47
2018-04-26T10:42:05.219Z,98702.88
2018-04-26T10:44:16.471Z,98704.60
2018-04-26T10:46:27.484Z,98707.94
2018-04-26T10:48:38.681Z,98710.23
2018-04-26T10:50:49.775Z,98702.16
2018-04-26T10:53:00.995Z,98705.68
2018-04-26T10:55:12.038Z,98702.36
2018-04-26T10:57:23.089Z,98693.38
2018-04-26T10:59:34.190Z,98695.05
2018-04-26T11:01:45.272Z,98690.03
2018-04-26T11:03:56.417Z,98685.98
2018-04-26T11:06:07.570Z,98686.23
2018-04-26T11:08:18.730Z,98686.00
2018-04-26T11:10:29.858Z,98687.12
2018-04-26T11:12:41.146Z,98688.80
2018-04-26T11:14:52.274Z,98683.13
2018-04-26T11:17:03.409Z,98677.36
2018-04-26T11:19:14.480Z,98676.47
2018-04-26T11:21:25.641Z,98679.59
2018-04-26T11:23:36.814Z,98671.36
2018-04-26T11:25:47.894Z,98668.44
2018-04-26T11:27:58.974Z,98670.56
2018-04-26T11:30:10.050Z,98658.92
2018-04-26T11:32:21.200Z,98659.75
2018-04-26T11:34:32.270Z,98660.72
2018-04-26T11:36:44.392Z,98655.73
2018-04-26T11:38:55.527Z,98654.30
2018-04-26T11:41:06.635Z,98665.22
2018-04-26T11:43:17.797Z,98665.27
2018-04-26T11:45:28.895Z,98662.30
2018-04-26T11:47:39.961Z,98657.20
2018-04-26T11:49:51.094Z,98654.94
2018-04-26T11:52:02.197Z,98659.61
2018-04-26T11:54:13.319Z,98655.84
2018-04-26T11:56:24.524Z,98657.46
2018-04-26T11:58:35.465Z,98650.20
2018-04-26T12:00:46.605Z,98653.13
2018-04-26T12:02:57.697Z,98645.56
2018-04-26T12:05:08.830Z,98657.91
2018-04-26T12:07:19.962Z,98655.89
2018-04-26T12:09:31.091Z,98660.27
2018-04-26T12:11:42.198Z,98664.48
2018-04-26T12:13:53.293Z,98646.50
2018-04-26T12:16:04.369Z,98661.11
2018-04-26T12:18:15.435Z,98658.70
2018-04-26T12:20:26.614Z,98663.66
2018-04-26T12:22:37.724Z,98658.41
2018-04-26T12:24:48.882Z,98671.43
2018-04-26T12:26:59.947Z,98662.03
2018-04-26T12:29:11.097Z,98664.93
2018-04-26T12:31:22.200Z,98658.17
2018-04-26T12:33:33.336Z,98660.95
2018-04-26T12:35:44.421Z,98665.70
2018-04-26T12:37:55.495Z,98671.41
2018-04-26T12:40:06.560Z,98666.62
2018-04-26T12:42:17.762Z,98653.73
2018-04-26T12:44:28.896Z,98659.07
2018-04-26T12:46:39.986Z,98659.14
2018-04-26T12:48:51.121Z,98656.74
2018-04-26T12:51:02.193Z,98659.28
2018-04-26T12:53:13.405Z,98656.66
2018-04-26T12:55:25.241Z,98656.16
2018-04-26T12:57:36.318Z,98661.80
2018-04-26T12:59:47.494Z,98652.10
2018-04-26T13:01:58.600Z,98657.03
2018-04-26T13:04:09.734Z,98654.30
2018-04-26T13:06:20.837Z,98660.17
2018-04-26T13:08:31.946Z,98648.67
2018-04-26T13:10:43.126Z,98667.94
2018-04-26T13:12:54.192Z,98653.02
2018-04-26T13:15:05.429Z,98650.74
2018-04-26T13:17:16.508Z,98648.34
2018-04-26T13:19:27.792Z,98649.07
2018-04-26T13:21:39.071Z,98653.89
2018-04-26T13:23:50.162Z,98646.02
2018-04-26T13:26:01.378Z,98635.90
2018-04-26T13:28:12.446Z,98642.40
2018-04-26T13:30:23.538Z,98636.08
2018-04-26T13:32:34.594Z,98641.73
2018-04-26T13:34:45.770Z,98648.73
2018-04-26T13:36:56.859Z,98645.00
2018-04-26T13:39:08.037Z,98641.55
2018-04-26T13:41:19.274Z,98639.69
2018-04-26T13:43:30.386Z,98639.55
2018-04-26T13:45:41.586Z,98642.83
2018-04-26T13:47:52.754Z,98648.70
2018-04-26T13:50:03.818Z,98638.41
2018-04-26T13:52:14.927Z,98640.86
2018-04-26T13:54:25.971Z,98630.47
2018-04-26T13:56:37.078Z,98627.84
2018-04-26T13:58:48.201Z,98628.91
2018-04-26T14:00:59.447Z,98629.02
2018-04-26T14:03:10.566Z,98631.16
2018-04-26T14:05:21.721Z,98628.50
2018-04-26T14:07:32.934Z,98623.39
2018-04-26T14:09:44.046Z,98628.53
2018-04-26T14:11:55.147Z,98632.57
2018-04-26T14:14:06.295Z,98624.03
2018-04-26T14:16:17.366Z,98623.86
2018-04-26T14:18:28.418Z,98623.44
2018-04-26T14:20:39.729Z,98620.56
2018-04-26T14:22:50.822Z,98627.34
2018-04-26T14:25:01.919Z,98617.18
2018-04-26T14:27:13.033Z,98613.14
2018-04-26T14:29:24.249Z,98611.34
2018-04-26T14:31:35.285Z,98618.25
2018-04-26T14:33:46.333Z,98614.79
2018-04-26T14:35:57.481Z,98606.28
2018-04-26T14:38:08.569Z,98608.28
2018-04-26T14:40:19.702Z,98613.85
2018-04-26T14:42:30.806Z,98621.53
2018-04-26T14:44:41.874Z,98627.73
2018-04-26T14:46:52.978Z,98623.27
2018-04-26T14:49:04.034Z,98622.33
2018-04-26T14:51:15.145Z,98623.06
2018-04-26T14:53:26.218Z,98617.61
2018-04-26T14:55:37.283Z,98613.19
2018-04-26T14:57:48.453Z,98618.82
2018-04-26T14:59:59.587Z,98616.72
2018-04-26T15:02:10.702Z,98621.58
2018-04-26T15:04:21.758Z,98616.74
2018-04-26T15:06:32.930Z,98614.26
2018-04-26T15:08:44.040Z,98618.06
2018-04-26T15:10:55.118Z,98609.23
2018-04-26T15:13:06.234Z,98606.25
2018-04-26T15:15:17.438Z,98613.20
2018-04-26T15:17:29.263Z,98611.19
2018-04-26T15:19:40.337Z,98601.55
2018-04-26T15:21:51.853Z,98591.64
2018-04-26T15:24:03.033Z,98596.55
2018-04-26T15:26:14.138Z,98601.27
2018-04-26T15:28:25.361Z,98597.53
2018-04-26T15:30:36.447Z,98590.08
2018-04-26T15:32:47.744Z,98596.05
2018-04-26T15:34:58.827Z,98595.55
2018-04-26T15:37:09.910Z,98593.34
2018-04-26T15:39:21.017Z,98593.06
2018-04-26T15:41:32.111Z,98594.62
2018-04-26T15:43:43.210Z,98583.06
2018-04-26T15:45:54.329Z,98584.37
2018-04-26T15:48:05.453Z,98575.02
2018-04-26T15:50:25.560Z,98578.01
2018-04-26T15:52:55.098Z,98580.91
2018-04-26T15:55:18.634Z,98580.44
2018-04-26T16:00:48.521Z,98579.29
2018-04-26T16:03:11.882Z,98589.99
2018-04-26T16:08:30.215Z,98585.43
2018-04-26T16:10:59.654Z,98582.27
2018-04-26T16:13:29.124Z,98588.47
2018-04-26T16:15:58.601Z,98576.67
2018-04-26T16:18:27.996Z,98579.14
2018-04-26T16:23:57.927Z,98590.30
2018-04-26T16:26:21.146Z,98596.55
2018-04-26T16:28:50.532Z,98591.95
2018-04-26T16:31:20.038Z,98592.63
2018-04-26T16:36:30.700Z,98591.23
2018-04-26T16:38:47.909Z,98598.09
2018-04-26T16:40:59.028Z,98593.97
2018-04-26T16:43:10.279Z,98603.27
2018-04-26T16:45:21.336Z,98602.91
2018-04-26T16:47:32.474Z,98597.67
2018-04-26T16:49:43.733Z,98592.65
2018-04-26T16:51:54.805Z,98600.33
2018-04-26T16:54:06.070Z,98605.80
2018-04-26T16:56:17.161Z,98597.36
2018-04-26T16:58:28.259Z,98601.27
2018-04-26T17:00:39.358Z,98596.28
2018-04-26T17:02:50.498Z,98596.38
2018-04-26T17:05:01.695Z,98595.33
2018-04-26T17:07:12.837Z,98598.45
2018-04-26T17:09:23.937Z,98595.46
2018-04-26T17:11:35.074Z,98596.80
2018-04-26T17:13:46.186Z,98596.88
2018-04-26T17:15:57.294Z,98596.58
2018-04-26T17:18:08.391Z,98593.59
2018-04-26T17:20:19.430Z,98593.91
2018-04-26T17:22:30.618Z,98594.61
2018-04-26T17:24:41.754Z,98589.75
2018-04-26T17:26:52.929Z,98596.13
2018-04-26T17:29:04.115Z,98598.99
2018-04-26T17:31:15.228Z,98600.97
2018-04-26T17:33:26.434Z,98596.03
2018-04-26T17:35:37.508Z,98596.73
2018-04-26T17:37:48.620Z,98604.06
2018-04-26T17:39:59.747Z,98598.87
2018-04-26T17:42:10.866Z,98604.67
2018-04-26T17:44:22.031Z,98612.98
2018-04-26T17:46:33.104Z,98610.52
2018-04-26T17:48:44.231Z,98609.77
2018-04-26T17:50:55.338Z,98603.86
2018-04-26T17:53:06.494Z,98606.55
2018-04-26T17:55:17.602Z,98612.95
2018-04-26T17:57:28.714Z,98621.48
2018-04-26T17:59:39.802Z,98619.50
2018-04-26T18:01:50.913Z,98616.95
2018-04-26T18:04:02.095Z,98616.59
2018-04-26T18:06:13.217Z,98623.05
2018-04-26T18:08:24.464Z,98627.38
2018-04-26T18:10:35.554Z,98626.77
2018-04-26T18:12:46.791Z,98630.14
2018-04-26T18:14:57.849Z,98631.30
2018-04-26T18:17:08.951Z,98631.31
2018-04-26T18:19:20.052Z,98633.76
2018-04-26T18:21:31.167Z,98629.55
2018-04-26T18:23:42.389Z,98624.89
2018-04-26T18:25:53.582Z,98632.09
2018-04-26T18:28:04.690Z,98635.19
2018-04-26T18:30:16.013Z,98640.45
2018-04-26T18:32:27.130Z,98644.05
2018-04-26T18:34:38.316Z,98635.13
2018-04-26T18:36:49.401Z,98636.06
2018-04-26T18:39:00.535Z,98636.80
2018-04-26T18:41:11.682Z,98638.27
2018-04-26T18:43:22.804Z,98643.16
2018-04-26T18:45:33.888Z,98643.98
2018-04-26T18:47:44.995Z,98644.89
2018-04-26T18:49:56.186Z,98654.39
2018-04-26T18:52:07.293Z,98656.53
2018-04-26T18:54:18.501Z,98660.08
2018-04-26T18:56:29.628Z,98654.61
2018-04-26T18:58:40.814Z,98658.98
2018-04-26T19:00:51.875Z,98664.98
2018-04-26T19:03:02.966Z,98663.16
2018-04-26T19:05:14.070Z,98664.36
2018-04-26T19:07:25.259Z,98659.03
2018-04-26T19:09:36.383Z,98662.55
2018-04-26T19:11:47.468Z,98663.59
2018-04-26T19:13:58.649Z,98668.18
2018-04-26T19:16:09.719Z,98674.74
2018-04-26T19:18:20.860Z,98678.45
2018-04-26T19:20:31.909Z,98684.00
2018-04-26T19:22:42.999Z,98685.84
2018-04-26T19:24:54.125Z,98690.70
2018-04-26T19:27:05.266Z,98689.05
2018-04-26T19:29:16.358Z,98688.70
2018-04-26T19:31:27.453Z,98692.42
2018-04-26T19:33:38.709Z,98693.91
2018-04-26T19:35:49.885Z,98709.25
2018-04-26T19:38:01.022Z,98705.67
2018-04-26T19:40:12.301Z,98710.77
2018-04-26T19:42:23.391Z,98711.70
2018-04-26T19:44:34.493Z,98711.98
2018-04-26T19:46:45.561Z,98712.45
2018-04-26T19:48:56.755Z,98709.92
2018-04-26T19:51:07.890Z,98711.86
2018-04-26T19:53:19.164Z,98713.30
2018-04-26T19:55:30.296Z,98711.64
2018-04-26T19:57:41.432Z,98711.06
2018-04-26T19:59:52.455Z,98708.09
2018-04-26T20:02:03.578Z,98705.66
2018-04-26T20:04:14.666Z,98706.80
2018-04-26T20:06:25.779Z,98699.88
2018-04-26T20:08:36.929Z,98700.45
2018-04-26T20:10:48.058Z,98696.60
2018-04-26T20:12:59.307Z,98700.78
2018-04-26T20:15:10.435Z,98697.67
2018-04-26T20:17:21.665Z,98698.65
2018-04-26T20:19:33.045Z,98702.81
2018-04-26T20:21:44.165Z,98694.75
2018-04-26T20:23:55.246Z,98697.09
2018-04-26T20:26:06.455Z,98695.45
2018-04-26T20:28:17.628Z,98688.47
2018-04-26T20:30:28.839Z,98691.39
2018-04-26T20:32:40.079Z,98692.34
2018-04-26T20:34:51.188Z,98697.80
2018-04-26T20:37:02.282Z,98698.16
2018-04-26T20:39:13.496Z,98698.20
2018-04-26T20:41:24.761Z,98703.92
2018-04-26T20:43:35.809Z,98697.63
2018-04-26T20:45:46.951Z,98704.78
2018-04-26T20:47:58.050Z,98707.16
2018-04-26T20:50:09.153Z,98706.98
2018-04-26T20:52:20.234Z,98698.63
2018-04-26T20:54:31.311Z,98697.06
2018-04-26T20:56:42.410Z,98700.94
2018-04-26T20:58:53.534Z,98694.24
2018-04-26T21:01:04.752Z,98703.27
2018-04-26T21:03:15.923Z,98699.77
2018-04-26T21:05:27.046Z,98693.50
2018-04-26T21:07:38.112Z,98693.39
2018-04-26T21:09:49.225Z,98699.20
2018-04-26T21:12:00.331Z,98695.50
2018-04-26T21:14:11.486Z,98697.19
2018-04-26T21:16:22.545Z,98690.01
2018-04-26T21:18:33.646Z,98690.25
2018-04-26T21:20:44.781Z,98684.56
2018-04-26T21:22:55.838Z,98693.69
2018-04-26T21:25:06.947Z,98689.25
2018-04-26T21:27:18.074Z,98690.17
2018-04-26T21:29:29.182Z,98680.25
2018-04-26T21:31:40.242Z,98684.98
2018-04-26T21:33:51.309Z,98682.95
2018-04-26T21:36:02.390Z,98686.74
2018-04-26T21:38:13.574Z,98686.74
2018-04-26T21:40:24.704Z,98690.59
2018-04-26T21:42:35.763Z,98687.84
2018-04-26T21:44:46.889Z,98683.09
2018-04-26T21:46:57.990Z,98688.56
2018-04-26T21:49:09.106Z,98685.75
2018-04-26T21:51:26.082Z,98685.30
2018-04-26T21:53:43.090Z,98681.34
2018-04-26T21:56:00.143Z,98682.38
2018-04-26T21:58:17.418Z,98685.90
2018-04-26T22:00:34.477Z,98682.84
2018-04-26T22:02:45.409Z,98684.47
2018-04-26T22:07:47.265Z,98676.41
2018-04-26T22:09:58.381Z,98682.39
2018-04-26T22:12:09.446Z,98682.70
2018-04-26T22:14:20.486Z,98682.09
2018-04-26T22:16:31.572Z,98675.70
2018-04-26T22:18:42.795Z,98678.30
2018-04-26T22:20:53.890Z,98677.88
2018-04-26T22:23:05.038Z,98676.16
2018-04-26T22:25:16.073Z,98668.78
2018-04-26T22:27:27.116Z,98665.85
2018-04-26T22:29:38.167Z,98669.05
2018-04-26T22:31:49.294Z,98668.91
2018-04-26T22:34:00.385Z,98660.41
2018-04-26T22:36:11.493Z,98663.16
2018-04-26T22:38:22.706Z,98665.63
2018-04-26T22:40:33.899Z,98671.69
2018-04-26T22:42:45.169Z,98665.58
2018-04-26T22:44:56.206Z,98663.45
2018-04-26T22:47:07.319Z,98656.70
2018-04-26T22:49:18.401Z,98661.83
2018-04-26T22:51:29.510Z,98661.83
2018-04-26T22:53:40.592Z,98660.75
2018-04-26T22:55:51.670Z,98663.47
2018-04-26T22:58:02.791Z,98657.22
2018-04-26T23:00:13.861Z,98660.70
2018-04-26T23:02:24.953Z,98663.00
2018-04-26T23:04:36.019Z,98662.45
2018-04-26T23:06:47.112Z,98660.59
2018-04-26T23:08:58.183Z,98661.59
2018-04-26T23:11:09.417Z,98656.02
2018-04-26T23:13:20.498Z,98648.89
2018-04-26T23:15:31.601Z,98654.61
2018-04-26T23:17:42.663Z,98650.08
2018-04-26T23:19:53.785Z,98652.83
2018-04-26T23:22:04.855Z,98652.45
2018-04-26T23:24:15.897Z,98650.42
2018-04-26T23:26:26.986Z,98645.58
2018-04-26T23:28:38.075Z,98645.45
2018-04-26T23:30:49.197Z,98649.38
2018-04-26T23:33:00.256Z,98654.19
2018-04-26T23:35:11.400Z,98647.84
2018-04-26T23:37:22.453Z,98646.29
2018-04-26T23:39:33.555Z,98640.45
2018-04-26T23:41:44.602Z,98643.70
2018-04-26T23:43:55.682Z,98640.45
2018-04-26T23:46:06.894Z,98640.88
2018-04-26T23:48:17.977Z,98644.30
2018-04-26T23:50:29.065Z,98640.83
2018-04-26T23:52:40.122Z,98643.04
2018-04-26T23:54:51.201Z,98639.70
2018-04-26T23:57:02.249Z,98637.00
2018-04-26T23:59:13.426Z,98636.49
